createdAt,value
2019-02-07T00:01:26.645Z,1013.64
2019-02-07T00:02:26.554Z,1013.68
2019-02-07T00:04:30.577Z,1013.67
2019-02-07T00:05:30.597Z,1013.64
2019-02-07T00:07:34.616Z,1013.57
2019-02-07T00:08:34.639Z,1013.55
2019-02-07T00:10:38.661Z,1013.57
2019-02-07T00:11:38.683Z,1013.58
2019-02-07T00:13:42.728Z,1013.55
2019-02-07T00:14:42.729Z,1013.60
2019-02-07T00:16:46.750Z,1013.46
2019-02-07T00:17:46.775Z,1013.49
2019-02-07T00:19:39.726Z,1013.43
2019-02-07T00:20:39.743Z,1013.38
2019-02-07T00:22:43.809Z,1013.37
2019-02-07T00:23:43.788Z,1013.40
2019-02-07T00:25:47.828Z,1013.32
2019-02-07T00:26:47.855Z,1013.40
2019-02-07T00:28:51.951Z,1013.38
2019-02-07T00:29:51.911Z,1013.45
2019-02-07T00:31:55.933Z,1013.40
2019-02-07T00:32:55.958Z,1013.39
2019-02-07T00:34:59.974Z,1013.33
2019-02-07T00:36:00.002Z,1013.37
2019-02-07T00:38:04.022Z,1013.36
2019-02-07T00:39:04.050Z,1013.37
2019-02-07T00:41:08.082Z,1013.39
2019-02-07T00:42:08.087Z,1013.32
2019-02-07T00:44:12.113Z,1013.33
2019-02-07T00:45:12.136Z,1013.35
2019-02-07T00:47:16.156Z,1013.30
2019-02-07T00:48:16.181Z,1013.24
2019-02-07T00:50:09.140Z,1013.26
2019-02-07T00:51:09.147Z,1013.23
2019-02-07T00:53:13.168Z,1013.26
2019-02-07T00:54:13.193Z,1013.23
2019-02-07T00:56:17.247Z,1013.15
2019-02-07T00:57:17.239Z,1013.20
2019-02-07T00:59:21.265Z,1013.16
2019-02-07T01:00:21.291Z,1013.15
2019-02-07T01:02:25.312Z,1013.10
2019-02-07T01:03:25.338Z,1013.09
2019-02-07T01:05:29.390Z,1013.12
2019-02-07T01:06:29.395Z,1013.07
2019-02-07T01:08:33.413Z,1013.09
2019-02-07T01:09:33.437Z,1013.01
2019-02-07T01:11:37.479Z,1012.91
2019-02-07T01:12:37.479Z,1012.84
2019-02-07T01:14:41.515Z,1012.87
2019-02-07T01:15:41.521Z,1012.84
2019-02-07T01:17:45.542Z,1012.90
2019-02-07T01:18:45.563Z,1012.88
2019-02-07T01:20:49.610Z,1012.82
2019-02-07T01:21:49.607Z,1012.84
2019-02-07T01:23:53.623Z,1012.77
2019-02-07T01:24:53.648Z,1012.80
2019-02-07T01:26:57.668Z,1012.78
2019-02-07T01:27:57.691Z,1012.80
2019-02-07T01:29:50.708Z,1012.81
2019-02-07T01:30:50.659Z,1012.78
2019-02-07T01:32:54.674Z,1012.78
2019-02-07T01:33:54.697Z,1012.75
2019-02-07T01:35:58.750Z,1012.75
2019-02-07T01:36:58.741Z,1012.76
2019-02-07T01:39:02.759Z,1012.72
2019-02-07T01:40:02.781Z,1012.70
2019-02-07T01:42:06.805Z,1012.65
2019-02-07T01:43:06.826Z,1012.71
2019-02-07T01:45:13.002Z,1012.68
2019-02-07T01:46:10.867Z,1012.74
2019-02-07T01:48:14.904Z,1012.72
2019-02-07T01:49:14.910Z,1012.69
2019-02-07T01:51:18.927Z,1012.58
2019-02-07T01:52:18.954Z,1012.52
2019-02-07T01:54:22.971Z,1012.54
2019-02-07T01:55:22.999Z,1012.56
2019-02-07T01:57:27.030Z,1012.54
2019-02-07T01:58:27.046Z,1012.49
2019-02-07T02:00:31.061Z,1012.45
2019-02-07T02:01:31.087Z,1012.44
2019-02-07T02:03:35.123Z,1012.38
2019-02-07T02:04:35.128Z,1012.37
2019-02-07T02:06:39.147Z,1012.31
2019-02-07T02:07:39.172Z,1012.26
2019-02-07T02:09:32.117Z,1012.25
2019-02-07T02:10:32.146Z,1012.21
2019-02-07T02:12:36.157Z,1012.21
2019-02-07T02:13:36.181Z,1012.22
2019-02-07T02:15:40.212Z,1012.21
2019-02-07T02:16:40.250Z,1012.09
2019-02-07T02:18:44.238Z,1012.08
2019-02-07T02:19:44.261Z,1012.09
2019-02-07T02:21:48.283Z,1012.03
2019-02-07T02:22:48.304Z,1011.99
2019-02-07T02:24:52.344Z,1011.87
2019-02-07T02:25:52.349Z,1011.85
2019-02-07T02:27:56.368Z,1011.78
2019-02-07T02:28:56.392Z,1011.76
2019-02-07T02:31:00.436Z,1011.81
2019-02-07T02:32:00.438Z,1011.83
2019-02-07T02:34:04.463Z,1011.86
2019-02-07T02:35:04.482Z,1011.86
2019-02-07T02:37:08.503Z,1011.85
2019-02-07T02:38:08.529Z,1011.79
2019-02-07T02:40:01.493Z,1011.82
2019-02-07T02:41:01.493Z,1011.85
2019-02-07T02:43:05.525Z,1011.81
2019-02-07T02:44:05.546Z,1011.76
2019-02-07T02:46:09.578Z,1011.70
2019-02-07T02:47:09.586Z,1011.68
2019-02-07T02:49:13.608Z,1011.63
2019-02-07T02:50:13.627Z,1011.61
2019-02-07T02:52:17.660Z,1011.66
2019-02-07T02:53:17.669Z,1011.61
2019-02-07T02:55:21.708Z,1011.58
2019-02-07T02:56:21.715Z,1011.55
2019-02-07T02:58:25.744Z,1011.53
2019-02-07T02:59:25.766Z,1011.46
2019-02-07T03:01:29.802Z,1011.47
2019-02-07T03:02:29.811Z,1011.49
2019-02-07T03:04:33.832Z,1011.56
2019-02-07T03:05:33.853Z,1011.54
2019-02-07T03:07:37.871Z,1011.52
2019-02-07T03:08:37.892Z,1011.49
2019-02-07T03:10:41.935Z,1011.41
2019-02-07T03:11:41.939Z,1011.38
2019-02-07T03:13:45.965Z,1011.38
2019-02-07T03:14:45.981Z,1011.39
2019-02-07T03:16:50.007Z,1011.36
2019-02-07T03:17:50.030Z,1011.40
2019-02-07T03:19:42.968Z,1011.27
2019-02-07T03:20:42.994Z,1011.32
2019-02-07T03:22:47.015Z,1011.28
2019-02-07T03:23:47.047Z,1011.24
2019-02-07T03:25:51.053Z,1011.21
2019-02-07T03:26:51.080Z,1011.19
2019-02-07T03:28:55.097Z,1011.16
2019-02-07T03:29:55.118Z,1011.16
2019-02-07T03:31:59.138Z,1011.08
2019-02-07T03:32:59.161Z,1011.11
2019-02-07T03:35:03.179Z,1011.10
2019-02-07T03:36:03.211Z,1011.09
2019-02-07T03:38:07.264Z,1011.04
2019-02-07T03:39:07.248Z,1011.01
2019-02-07T03:41:11.279Z,1011.02
2019-02-07T03:42:11.308Z,1011.08
2019-02-07T03:44:15.305Z,1010.98
2019-02-07T03:45:15.328Z,1010.99
2019-02-07T03:47:19.347Z,1010.99
2019-02-07T03:48:19.374Z,1011.01
2019-02-07T03:50:12.311Z,1010.94
2019-02-07T03:51:12.334Z,1010.95
2019-02-07T03:53:16.359Z,1010.94
2019-02-07T03:54:16.384Z,1010.97
2019-02-07T03:56:20.405Z,1010.88
2019-02-07T03:57:20.422Z,1010.91
2019-02-07T03:59:24.439Z,1010.88
2019-02-07T04:00:24.464Z,1010.87
2019-02-07T04:02:28.478Z,1010.89
2019-02-07T04:03:28.500Z,1010.87
2019-02-07T04:05:32.518Z,1010.91
2019-02-07T04:06:32.542Z,1010.81
2019-02-07T04:08:36.560Z,1010.79
2019-02-07T04:09:36.581Z,1010.76
2019-02-07T04:11:40.643Z,1010.80
2019-02-07T04:12:40.621Z,1010.79
2019-02-07T04:14:44.637Z,1010.78
2019-02-07T04:15:44.668Z,1010.88
2019-02-07T04:17:48.699Z,1010.75
2019-02-07T04:18:48.703Z,1010.77
2019-02-07T04:20:52.719Z,1010.76
2019-02-07T04:21:52.740Z,1010.75
2019-02-07T04:23:56.758Z,1010.71
2019-02-07T04:24:56.781Z,1010.67
2019-02-07T04:27:00.798Z,1010.72
2019-02-07T04:28:00.827Z,1010.68
2019-02-07T04:29:53.767Z,1010.68
2019-02-07T04:30:53.786Z,1010.64
2019-02-07T04:32:57.810Z,1010.64
2019-02-07T04:33:57.825Z,1010.60
2019-02-07T04:36:01.848Z,1010.55
2019-02-07T04:37:01.870Z,1010.58
2019-02-07T04:38:55.007Z,1010.51
2019-02-07T04:39:55.032Z,1010.49
2019-02-07T04:41:59.051Z,1010.42
2019-02-07T04:42:59.073Z,1010.44
2019-02-07T04:45:03.111Z,1010.43
2019-02-07T04:46:03.133Z,1010.35
2019-02-07T04:47:56.271Z,1010.37
2019-02-07T04:48:56.294Z,1010.26
2019-02-07T04:50:49.433Z,1010.23
2019-02-07T04:51:49.455Z,1010.20
2019-02-07T04:53:53.479Z,1010.21
2019-02-07T04:54:53.537Z,1010.20
2019-02-07T04:56:57.547Z,1010.15
2019-02-07T04:57:57.533Z,1010.16
2019-02-07T05:01:22.123Z,1010.10
2019-02-07T05:02:22.146Z,1010.09
2019-02-07T05:04:26.170Z,1010.07
2019-02-07T05:05:26.195Z,1010.01
2019-02-07T05:07:30.212Z,1010.01
2019-02-07T05:08:30.235Z,1009.98
2019-02-07T05:10:34.258Z,1010.00
2019-02-07T05:11:34.280Z,1010.10
2019-02-07T05:13:38.304Z,1010.02
2019-02-07T05:14:38.326Z,1010.06
2019-02-07T05:16:43.763Z,1010.04
2019-02-07T05:17:42.365Z,1009.99
2019-02-07T05:19:46.385Z,1009.86
2019-02-07T05:20:46.411Z,1009.85
2019-02-07T05:22:50.439Z,1009.90
2019-02-07T05:23:50.451Z,1009.88
2019-02-07T05:25:54.464Z,1009.83
2019-02-07T05:26:54.648Z,1009.92
2019-02-07T05:28:58.508Z,1009.83
2019-02-07T05:29:58.529Z,1009.84
2019-02-07T05:32:02.596Z,1009.74
2019-02-07T05:33:02.579Z,1009.74
2019-02-07T05:35:06.599Z,1009.72
2019-02-07T05:36:06.620Z,1009.74
2019-02-07T05:38:10.636Z,1009.78
2019-02-07T05:39:10.658Z,1009.70
2019-02-07T05:41:03.602Z,1009.67
2019-02-07T05:42:03.622Z,1009.70
2019-02-07T05:44:07.638Z,1009.63
2019-02-07T05:45:07.661Z,1009.68
2019-02-07T05:47:11.681Z,1009.67
2019-02-07T05:48:11.704Z,1009.67
2019-02-07T05:50:15.734Z,1009.62
2019-02-07T05:51:15.744Z,1009.59
2019-02-07T05:53:19.769Z,1009.68
2019-02-07T05:54:19.790Z,1009.63
2019-02-07T05:56:23.809Z,1009.63
2019-02-07T05:57:23.830Z,1009.60
2019-02-07T05:59:27.852Z,1009.63
2019-02-07T06:00:27.990Z,1009.60
2019-02-07T06:02:31.891Z,1009.55
2019-02-07T06:03:31.912Z,1009.50
2019-02-07T06:05:36.010Z,1009.49
2019-02-07T06:06:35.962Z,1009.50
2019-02-07T06:08:39.973Z,1009.50
2019-02-07T06:09:39.995Z,1009.46
2019-02-07T06:11:32.958Z,1009.48
2019-02-07T06:12:32.961Z,1009.42
2019-02-07T06:14:36.978Z,1009.47
2019-02-07T06:15:37.105Z,1009.47
2019-02-07T06:17:41.043Z,1009.42
2019-02-07T06:18:41.042Z,1009.41
2019-02-07T06:20:45.057Z,1009.36
2019-02-07T06:21:47.986Z,1009.37
2019-02-07T06:23:49.097Z,1009.29
2019-02-07T06:24:49.121Z,1009.25
2019-02-07T06:26:53.177Z,1009.30
2019-02-07T06:27:53.168Z,1009.24
2019-02-07T06:29:57.188Z,1009.20
2019-02-07T06:30:57.211Z,1009.32
2019-02-07T06:33:01.236Z,1009.15
2019-02-07T06:34:01.261Z,1009.19
2019-02-07T06:36:05.265Z,1009.18
2019-02-07T06:37:05.299Z,1009.18
2019-02-07T06:39:09.418Z,1009.14
2019-02-07T06:40:09.335Z,1009.14
2019-02-07T06:42:13.352Z,1009.19
2019-02-07T06:43:13.374Z,1009.12
2019-02-07T06:45:17.423Z,1009.04
2019-02-07T06:46:17.416Z,1009.07
2019-02-07T06:48:21.431Z,1009.02
2019-02-07T06:49:21.453Z,1009.04
2019-02-07T06:51:14.434Z,1009.01
2019-02-07T06:52:14.414Z,1008.97
2019-02-07T06:54:18.436Z,1008.88
2019-02-07T06:55:18.456Z,1008.96
2019-02-07T06:57:22.500Z,1008.91
2019-02-07T06:58:22.502Z,1008.84
2019-02-07T07:00:26.526Z,1008.85
2019-02-07T07:01:26.551Z,1008.83
2019-02-07T07:03:30.582Z,1008.82
2019-02-07T07:04:30.588Z,1008.83
2019-02-07T07:06:34.605Z,1008.91
2019-02-07T07:07:34.628Z,1008.92
2019-02-07T07:09:38.666Z,1008.85
2019-02-07T07:10:38.673Z,1008.84
2019-02-07T07:12:42.691Z,1008.91
2019-02-07T07:13:42.714Z,1008.96
2019-02-07T07:15:46.735Z,1008.90
2019-02-07T07:16:46.755Z,1008.99
2019-02-07T07:18:50.775Z,1008.93
2019-02-07T07:19:50.795Z,1008.90
2019-02-07T07:21:54.822Z,1008.92
2019-02-07T07:22:54.846Z,1008.94
2019-02-07T07:24:58.932Z,1008.97
2019-02-07T07:25:58.893Z,1008.88
2019-02-07T07:28:02.916Z,1008.87
2019-02-07T07:29:02.939Z,1008.85
2019-02-07T07:30:56.073Z,1008.85
2019-02-07T07:31:55.901Z,1008.89
2019-02-07T07:33:59.920Z,1008.81
2019-02-07T07:34:59.943Z,1008.90
2019-02-07T07:37:04.073Z,1008.85
2019-02-07T07:38:03.984Z,1008.87
2019-02-07T07:40:08.007Z,1008.87
2019-02-07T07:41:08.034Z,1008.78
2019-02-07T07:43:12.093Z,1008.79
2019-02-07T07:44:12.075Z,1008.85
2019-02-07T07:46:16.092Z,1008.81
2019-02-07T07:47:16.112Z,1008.78
2019-02-07T07:49:20.137Z,1008.71
2019-02-07T07:50:20.158Z,1008.68
2019-02-07T07:52:24.173Z,1008.57
2019-02-07T07:53:24.195Z,1008.56
2019-02-07T07:55:29.227Z,1008.59
2019-02-07T07:56:29.248Z,1008.52
2019-02-07T07:58:33.270Z,1008.40
2019-02-07T07:59:33.290Z,1008.47
2019-02-07T08:01:26.233Z,1008.49
2019-02-07T08:02:26.253Z,1008.44
2019-02-07T08:04:30.278Z,1008.43
2019-02-07T08:05:30.302Z,1008.40
2019-02-07T08:07:34.324Z,1008.46
2019-02-07T08:08:34.344Z,1008.39
2019-02-07T08:10:27.480Z,1008.40
2019-02-07T08:11:27.503Z,1008.36
2019-02-07T08:13:31.524Z,1008.29
2019-02-07T08:14:31.547Z,1008.32
2019-02-07T08:16:35.592Z,1008.31
2019-02-07T08:17:46.894Z,1008.29
2019-02-07T08:19:39.613Z,1008.31
2019-02-07T08:20:39.635Z,1008.27
2019-02-07T08:22:43.764Z,1008.26
2019-02-07T08:23:43.680Z,1008.22
2019-02-07T08:25:47.703Z,1008.21
2019-02-07T08:26:47.725Z,1008.20
2019-02-07T08:28:51.808Z,1008.16
2019-02-07T08:29:51.765Z,1008.17
2019-02-07T08:31:55.784Z,1008.16
2019-02-07T08:32:55.805Z,1008.19
2019-02-07T08:34:59.822Z,1008.17
2019-02-07T08:35:59.846Z,1008.13
2019-02-07T08:38:03.868Z,1008.03
2019-02-07T08:39:03.888Z,1008.03
2019-02-07T08:40:56.833Z,1007.97
2019-02-07T08:41:56.860Z,1007.94
2019-02-07T08:44:00.870Z,1007.92
2019-02-07T08:45:00.896Z,1007.96
2019-02-07T08:47:04.916Z,1007.93
2019-02-07T08:48:04.940Z,1007.89
2019-02-07T08:50:08.960Z,1007.84
2019-02-07T08:51:08.983Z,1007.80
2019-02-07T08:53:13.009Z,1007.81
2019-02-07T08:54:13.025Z,1007.75
2019-02-07T08:56:17.052Z,1007.72
2019-02-07T08:57:17.067Z,1007.76
2019-02-07T08:59:21.089Z,1007.73
2019-02-07T09:00:21.113Z,1007.74
2019-02-07T09:02:25.165Z,1007.75
2019-02-07T09:03:25.154Z,1007.69
2019-02-07T09:05:29.175Z,1007.62
2019-02-07T09:06:29.198Z,1007.60
2019-02-07T09:08:33.264Z,1007.53
2019-02-07T09:09:33.239Z,1007.57
2019-02-07T09:11:26.184Z,1007.54
2019-02-07T09:12:26.205Z,1007.45
2019-02-07T09:14:19.409Z,1007.49
2019-02-07T09:15:19.368Z,1007.45
2019-02-07T09:17:23.395Z,1007.40
2019-02-07T09:18:23.410Z,1007.41
2019-02-07T09:20:27.454Z,1007.35
2019-02-07T09:21:27.458Z,1007.26
2019-02-07T09:23:20.607Z,1007.25
2019-02-07T09:24:20.621Z,1007.21
2019-02-07T09:26:13.783Z,1007.20
2019-02-07T09:27:13.787Z,1007.13
2019-02-07T09:29:17.805Z,1007.22
2019-02-07T09:30:17.829Z,1007.17
2019-02-07T09:32:21.852Z,1007.37
2019-02-07T09:33:21.874Z,1007.22
2019-02-07T09:35:25.895Z,1007.32
2019-02-07T09:36:25.915Z,1007.43
2019-02-07T09:38:29.987Z,1007.31
2019-02-07T09:39:29.957Z,1007.33
2019-02-07T09:40:29.985Z,1007.33
2019-02-07T09:41:30.010Z,1007.36
2019-02-07T09:42:30.046Z,1007.36
2019-02-07T09:43:30.068Z,1007.29
2019-02-07T09:44:30.093Z,1007.35
2019-02-07T09:45:30.120Z,1007.35
2019-02-07T09:46:30.146Z,1007.27
2019-02-07T09:47:30.176Z,1007.39
2019-02-07T09:48:30.201Z,1007.23
2019-02-07T09:49:30.230Z,1007.20
2019-02-07T09:50:30.255Z,1007.12
2019-02-07T09:51:30.282Z,1007.17
2019-02-07T09:52:30.311Z,1007.15
2019-02-07T09:53:30.337Z,1007.17
2019-02-07T09:54:30.366Z,1007.09
2019-02-07T09:55:30.391Z,1007.14
2019-02-07T09:56:30.419Z,1007.06
2019-02-07T09:57:30.447Z,1007.12
2019-02-07T09:58:30.474Z,1007.20
2019-02-07T09:59:30.504Z,1007.17
2019-02-07T10:00:30.530Z,1007.31
2019-02-07T10:01:30.564Z,1007.26
2019-02-07T10:02:30.586Z,1007.32
2019-02-07T10:03:30.612Z,1007.28
2019-02-07T10:04:30.639Z,1007.20
2019-02-07T10:05:30.705Z,1007.21
2019-02-07T10:06:30.698Z,1007.19
2019-02-07T10:07:30.721Z,1007.21
2019-02-07T10:08:30.753Z,1007.21
2019-02-07T10:09:30.780Z,1007.23
2019-02-07T10:10:30.807Z,1007.29
2019-02-07T10:11:30.835Z,1007.26
2019-02-07T10:12:30.863Z,1007.18
2019-02-07T10:13:30.893Z,1007.24
2019-02-07T10:14:30.921Z,1007.14
2019-02-07T10:15:30.948Z,1007.16
2019-02-07T10:16:30.977Z,1007.17
2019-02-07T10:17:31.006Z,1007.14
2019-02-07T10:18:33.097Z,1007.11
2019-02-07T10:19:31.062Z,1007.12
2019-02-07T10:20:31.092Z,1007.08
2019-02-07T10:21:31.121Z,1007.02
2019-02-07T10:22:31.150Z,1006.93
2019-02-07T10:23:31.179Z,1006.97
2019-02-07T10:24:31.208Z,1006.94
2019-02-07T10:25:31.239Z,1006.88
2019-02-07T10:26:31.269Z,1006.92
2019-02-07T10:27:31.298Z,1006.91
2019-02-07T10:28:31.332Z,1006.90
2019-02-07T10:29:31.360Z,1007.05
2019-02-07T10:30:31.392Z,1006.88
2019-02-07T10:31:31.422Z,1006.95
2019-02-07T10:32:31.454Z,1007.00
2019-02-07T10:33:31.485Z,1007.07
2019-02-07T10:34:31.520Z,1007.06
2019-02-07T10:35:31.552Z,1007.10
2019-02-07T10:36:31.586Z,1007.05
2019-02-07T10:37:31.622Z,1007.15
2019-02-07T10:38:31.654Z,1007.30
2019-02-07T10:39:31.688Z,1007.36
2019-02-07T10:40:31.724Z,1007.43
2019-02-07T10:41:32.069Z,1007.29
2019-02-07T10:42:31.794Z,1007.14
2019-02-07T10:43:31.937Z,1006.98
2019-02-07T10:44:31.868Z,1007.02
2019-02-07T10:45:31.904Z,1006.97
2019-02-07T10:46:31.941Z,1006.82
2019-02-07T10:47:31.981Z,1006.93
2019-02-07T10:48:32.013Z,1006.82
2019-02-07T10:49:32.051Z,1006.78
2019-02-07T10:50:32.086Z,1006.90
2019-02-07T10:51:32.123Z,1006.77
2019-02-07T10:52:32.159Z,1006.72
2019-02-07T10:53:32.197Z,1006.63
2019-02-07T10:54:32.232Z,1006.55
2019-02-07T10:55:32.268Z,1006.54
2019-02-07T10:56:32.308Z,1006.53
2019-02-07T10:57:32.352Z,1006.48
2019-02-07T10:58:32.376Z,1006.47
2019-02-07T10:59:32.410Z,1006.38
2019-02-07T11:00:32.447Z,1006.43
2019-02-07T11:01:32.482Z,1006.42
2019-02-07T11:02:32.516Z,1006.41
2019-02-07T11:03:32.552Z,1006.39
2019-02-07T11:04:32.587Z,1006.47
2019-02-07T11:05:32.622Z,1006.27
2019-02-07T11:06:32.654Z,1006.26
2019-02-07T11:07:32.691Z,1006.29
2019-02-07T11:08:32.732Z,1006.20
2019-02-07T11:09:32.755Z,1006.22
2019-02-07T11:10:32.790Z,1006.20
2019-02-07T11:11:32.823Z,1006.23
2019-02-07T11:12:32.856Z,1006.24
2019-02-07T11:13:32.889Z,1006.16
2019-02-07T11:14:32.923Z,1006.18
2019-02-07T11:15:32.953Z,1006.11
2019-02-07T11:16:32.988Z,1006.20
2019-02-07T11:17:33.021Z,1006.13
2019-02-07T11:18:33.052Z,1006.06
2019-02-07T11:19:33.086Z,1006.07
2019-02-07T11:20:33.115Z,1005.99
2019-02-07T11:21:33.148Z,1005.97
2019-02-07T11:22:33.183Z,1005.92
2019-02-07T11:23:33.211Z,1005.95
2019-02-07T11:24:33.244Z,1005.86
2019-02-07T11:25:33.276Z,1005.85
2019-02-07T11:26:33.306Z,1005.88
2019-02-07T11:27:33.337Z,1005.84
2019-02-07T11:28:33.370Z,1005.86
2019-02-07T11:29:33.401Z,1005.90
2019-02-07T11:30:33.433Z,1005.83
2019-02-07T11:31:33.496Z,1005.87
2019-02-07T11:32:33.495Z,1005.84
2019-02-07T11:33:33.526Z,1005.75
2019-02-07T11:34:33.557Z,1005.89
2019-02-07T11:35:33.587Z,1005.75
2019-02-07T11:36:33.619Z,1005.70
2019-02-07T11:37:33.650Z,1005.64
2019-02-07T11:38:33.680Z,1005.58
2019-02-07T11:39:33.710Z,1005.52
2019-02-07T11:40:33.740Z,1005.59
2019-02-07T11:41:33.867Z,1005.57
2019-02-07T11:42:33.803Z,1005.49
2019-02-07T11:43:33.833Z,1005.60
2019-02-07T11:44:33.865Z,1005.69
2019-02-07T11:45:33.895Z,1005.80
2019-02-07T11:46:37.302Z,1005.75
2019-02-07T11:47:33.955Z,1005.67
2019-02-07T11:48:33.987Z,1005.62
2019-02-07T11:49:34.015Z,1005.64
2019-02-07T11:50:34.047Z,1005.57
2019-02-07T11:51:34.077Z,1005.66
2019-02-07T11:52:34.107Z,1005.59
2019-02-07T11:53:34.139Z,1005.68
2019-02-07T11:54:34.171Z,1005.49
2019-02-07T11:55:34.200Z,1005.48
2019-02-07T11:56:34.229Z,1005.45
2019-02-07T11:57:34.261Z,1005.40
2019-02-07T11:58:34.299Z,1005.38
2019-02-07T11:59:34.322Z,1005.35
2019-02-07T12:00:34.353Z,1005.36
2019-02-07T12:01:34.382Z,1005.33
2019-02-07T12:02:34.416Z,1005.40
2019-02-07T12:03:34.444Z,1005.38
2019-02-07T12:04:34.474Z,1005.47
2019-02-07T12:05:34.505Z,1005.42
2019-02-07T12:06:34.535Z,1005.58
2019-02-07T12:07:34.564Z,1005.55
2019-02-07T12:08:34.597Z,1005.59
2019-02-07T12:09:34.631Z,1005.72
2019-02-07T12:10:34.657Z,1005.54
2019-02-07T12:11:34.685Z,1005.49
2019-02-07T12:12:34.715Z,1005.53
2019-02-07T12:13:34.746Z,1005.57
2019-02-07T12:14:34.778Z,1005.48
2019-02-07T12:15:34.812Z,1005.41
2019-02-07T12:16:34.835Z,1005.46
2019-02-07T12:17:34.866Z,1005.40
2019-02-07T12:18:34.895Z,1005.49
2019-02-07T12:19:34.925Z,1005.44
2019-02-07T12:20:34.954Z,1005.49
2019-02-07T12:21:34.984Z,1005.51
2019-02-07T12:22:37.380Z,1005.49
2019-02-07T12:23:35.044Z,1005.42
2019-02-07T12:24:35.074Z,1005.51
2019-02-07T12:25:35.103Z,1005.42
2019-02-07T12:26:35.134Z,1005.33
2019-02-07T12:27:35.162Z,1005.23
2019-02-07T12:28:36.142Z,1005.24
2019-02-07T12:29:35.223Z,1005.28
2019-02-07T12:30:35.252Z,1005.39
2019-02-07T12:31:35.281Z,1005.35
2019-02-07T12:32:35.309Z,1005.41
2019-02-07T12:33:35.342Z,1005.40
2019-02-07T12:34:35.370Z,1005.34
2019-02-07T12:35:35.399Z,1005.40
2019-02-07T12:36:35.429Z,1005.42
2019-02-07T12:37:35.469Z,1005.39
2019-02-07T12:38:35.489Z,1005.30
2019-02-07T12:39:35.517Z,1005.28
2019-02-07T12:40:35.547Z,1005.24
2019-02-07T12:41:35.576Z,1005.18
2019-02-07T12:42:35.606Z,1005.21
2019-02-07T12:43:35.640Z,1005.26
2019-02-07T12:44:35.667Z,1005.24
2019-02-07T12:45:35.698Z,1005.25
2019-02-07T12:46:35.723Z,1005.27
2019-02-07T12:47:35.753Z,1005.23
2019-02-07T12:48:35.794Z,1005.29
2019-02-07T12:49:35.815Z,1005.26
2019-02-07T12:50:35.841Z,1005.14
2019-02-07T12:51:35.873Z,1005.11
2019-02-07T12:52:35.901Z,1005.16
2019-02-07T12:53:35.931Z,1005.12
2019-02-07T12:54:35.960Z,1005.11
2019-02-07T12:55:35.989Z,1005.06
2019-02-07T12:56:36.019Z,1005.02
2019-02-07T12:57:36.046Z,1004.92
2019-02-07T12:58:36.076Z,1004.90
2019-02-07T12:59:36.106Z,1004.95
2019-02-07T13:00:36.138Z,1004.90
2019-02-07T13:01:36.165Z,1004.95
2019-02-07T13:02:36.195Z,1004.89
2019-02-07T13:03:36.225Z,1004.92
2019-02-07T13:04:36.251Z,1004.88
2019-02-07T13:05:36.282Z,1004.79
2019-02-07T13:06:36.311Z,1004.86
2019-02-07T13:07:36.341Z,1004.90
2019-02-07T13:08:36.370Z,1004.87
2019-02-07T13:09:36.401Z,1004.85
2019-02-07T13:10:36.430Z,1004.85
2019-02-07T13:11:36.469Z,1004.84
2019-02-07T13:12:36.488Z,1004.85
2019-02-07T13:13:36.527Z,1004.78
2019-02-07T13:14:36.596Z,1004.82
2019-02-07T13:15:36.575Z,1005.02
2019-02-07T13:16:36.655Z,1004.86
2019-02-07T13:17:36.637Z,1004.81
2019-02-07T13:18:36.696Z,1004.77
2019-02-07T13:19:40.699Z,1004.76
2019-02-07T13:20:36.725Z,1004.85
2019-02-07T13:21:36.777Z,1004.85
2019-02-07T13:22:36.784Z,1004.92
2019-02-07T13:23:36.816Z,1005.02
2019-02-07T13:24:36.848Z,1005.10
2019-02-07T13:25:36.871Z,1005.04
2019-02-07T13:26:36.906Z,1005.14
2019-02-07T13:27:36.955Z,1005.07
2019-02-07T13:28:36.958Z,1004.96
2019-02-07T13:29:36.988Z,1004.95
2019-02-07T13:30:37.022Z,1004.95
2019-02-07T13:31:37.051Z,1005.10
2019-02-07T13:32:37.095Z,1004.90
2019-02-07T13:33:37.106Z,1004.97
2019-02-07T13:34:37.175Z,1005.05
2019-02-07T13:35:37.164Z,1005.10
2019-02-07T13:36:37.193Z,1005.07
2019-02-07T13:37:37.223Z,1005.03
2019-02-07T13:38:37.251Z,1004.98
2019-02-07T13:39:37.664Z,1005.01
2019-02-07T13:40:37.311Z,1004.93
2019-02-07T13:41:37.342Z,1005.01
2019-02-07T13:42:37.376Z,1005.09
2019-02-07T13:43:37.401Z,1005.04
2019-02-07T13:44:37.431Z,1005.03
2019-02-07T13:45:37.461Z,1005.04
2019-02-07T13:46:37.496Z,1005.04
2019-02-07T13:47:37.522Z,1005.09
2019-02-07T13:48:37.552Z,1005.08
2019-02-07T13:49:37.581Z,1005.07
2019-02-07T13:50:37.612Z,1005.11
2019-02-07T13:51:37.641Z,1005.05
2019-02-07T13:52:37.672Z,1005.18
2019-02-07T13:53:37.702Z,1005.17
2019-02-07T13:54:37.731Z,1005.23
2019-02-07T13:55:37.761Z,1005.24
2019-02-07T13:56:37.791Z,1005.19
2019-02-07T13:57:37.821Z,1005.16
2019-02-07T13:58:37.850Z,1005.15
2019-02-07T13:59:37.879Z,1005.14
2019-02-07T14:00:37.908Z,1005.28
2019-02-07T14:01:37.938Z,1005.23
2019-02-07T14:02:37.968Z,1005.12
2019-02-07T14:03:37.998Z,1005.09
2019-02-07T14:04:38.026Z,1005.13
2019-02-07T14:05:38.667Z,1005.14
2019-02-07T14:06:38.085Z,1005.19
2019-02-07T14:07:39.895Z,1005.15
2019-02-07T14:08:38.818Z,1005.23
2019-02-07T14:09:38.177Z,1005.22
2019-02-07T14:10:38.207Z,1005.21
2019-02-07T14:11:38.232Z,1005.21
2019-02-07T14:12:38.263Z,1005.19
2019-02-07T14:13:41.009Z,1005.20
2019-02-07T14:14:38.320Z,1005.23
2019-02-07T14:15:38.349Z,1005.21
2019-02-07T14:16:38.376Z,1005.17
2019-02-07T14:17:38.406Z,1005.12
2019-02-07T14:18:38.439Z,1005.26
2019-02-07T14:19:38.466Z,1005.18
2019-02-07T14:20:38.494Z,1005.23
2019-02-07T14:21:38.525Z,1005.23
2019-02-07T14:22:38.554Z,1005.24
2019-02-07T14:23:38.582Z,1005.25
2019-02-07T14:24:38.610Z,1005.08
2019-02-07T14:25:38.639Z,1005.19
2019-02-07T14:26:38.668Z,1005.22
2019-02-07T14:27:38.700Z,1005.21
2019-02-07T14:28:38.726Z,1005.28
2019-02-07T14:29:38.756Z,1005.32
2019-02-07T14:30:38.785Z,1005.29
2019-02-07T14:31:38.813Z,1005.25
2019-02-07T14:32:38.841Z,1005.24
2019-02-07T14:33:38.870Z,1005.26
2019-02-07T14:34:38.899Z,1005.15
2019-02-07T14:35:38.926Z,1005.06
2019-02-07T14:36:38.957Z,1004.98
2019-02-07T14:37:38.993Z,1005.02
2019-02-07T14:38:39.014Z,1005.03
2019-02-07T14:39:39.112Z,1005.13
2019-02-07T14:40:39.072Z,1005.18
2019-02-07T14:41:39.102Z,1005.28
2019-02-07T14:42:39.130Z,1005.23
2019-02-07T14:43:39.159Z,1005.27
2019-02-07T14:44:39.195Z,1005.26
2019-02-07T14:45:39.215Z,1005.30
2019-02-07T14:46:39.243Z,1005.29
2019-02-07T14:47:39.272Z,1005.29
2019-02-07T14:48:39.300Z,1005.26
2019-02-07T14:49:39.329Z,1005.25
2019-02-07T14:50:39.358Z,1005.29
2019-02-07T14:51:39.387Z,1005.19
2019-02-07T14:52:39.416Z,1005.23
2019-02-07T14:53:39.445Z,1005.14
2019-02-07T14:54:39.474Z,1005.03
2019-02-07T14:55:39.501Z,1004.98
2019-02-07T14:56:39.530Z,1004.93
2019-02-07T14:57:39.560Z,1004.95
2019-02-07T14:58:39.588Z,1004.94
2019-02-07T14:59:39.618Z,1004.97
2019-02-07T15:00:39.645Z,1004.96
2019-02-07T15:01:39.675Z,1004.97
2019-02-07T15:02:39.701Z,1004.96
2019-02-07T15:03:39.729Z,1004.97
2019-02-07T15:04:39.757Z,1004.95
2019-02-07T15:05:39.792Z,1005.15
2019-02-07T15:06:39.816Z,1005.00
2019-02-07T15:07:39.843Z,1005.04
2019-02-07T15:08:39.873Z,1005.09
2019-02-07T15:09:39.901Z,1005.05
2019-02-07T15:10:39.931Z,1004.98
2019-02-07T15:11:39.957Z,1004.94
2019-02-07T15:12:39.985Z,1004.91
2019-02-07T15:13:40.016Z,1004.94
2019-02-07T15:14:40.043Z,1004.94
2019-02-07T15:15:40.070Z,1004.99
2019-02-07T15:16:40.101Z,1004.89
2019-02-07T15:17:40.128Z,1004.83
2019-02-07T15:18:40.156Z,1004.79
2019-02-07T15:19:40.184Z,1004.68
2019-02-07T15:20:40.212Z,1004.68
2019-02-07T15:21:40.242Z,1004.71
2019-02-07T15:22:40.270Z,1004.70
2019-02-07T15:23:40.299Z,1004.76
2019-02-07T15:24:40.341Z,1004.65
2019-02-07T15:25:40.355Z,1004.55